Antonello — IKVS — position and weather

sailwx.info

Track history (hours):
 
Tides and Currents Weather Stations Pressure Air Temp Water Temp Dewpoint Dewpoint Depression Visibility Wind Speed Wind Dir Waves Ship Positions

Antonello

Last reported at 2015-Aug-30 15:33 UTC. Time now 2015-Aug-30 15:58 UTC.
Position N 38°27' E 015°48'.

Length 70 m; draft 4.2 m.

Type: Ship. MMSI: 247422000.

Date/timePositionNaut miles runAvg speedWind from/ knotsBaromVisibWave heightAir tempDewpointWater temp
2015-Aug-30 15:33N 38°27' E 015°48'5 0.7
2015-Aug-30 08:33N 38°27' E 015°54'8 8.5
2015-Aug-30 07:34N 38°28' E 015°44'10 9.8
2015-Aug-30 06:34N 38°29' E 015°31'10 9.8
2015-Aug-30 05:33N 38°31' E 015°19'10 9.9
2015-Aug-30 04:34N 38°32' E 015°06'11 0.8
2015-Aug-29 15:31N 38°34' E 014°53'7 6.8
2015-Aug-29 14:33N 38°32' E 015°01'9 8.8
2015-Aug-29 13:33N 38°31' E 015°12'9 8.7
2015-Aug-29 12:33N 38°30' E 015°23'9 8.7
2015-Aug-29 11:33N 38°29' E 015°34'9 8.8
2015-Aug-29 10:33N 38°28' E 015°45'7 7.4
2015-Aug-29 09:33N 38°27' E 015°54'0 0.0
2015-Aug-29 03:33N 38°27' E 015°54'5 4.7
2015-Aug-29 02:33N 38°29' E 015°49'1 0.7
2015-Aug-29 01:33N 38°29' E 015°50'1 0.9
2015-Aug-29 00:33N 38°28' E 015°50'7 6.7
2015-Aug-28 23:32N 38°27' E 015°41'9 9.0
2015-Aug-28 22:33N 38°29' E 015°30'9 9.4
2015-Aug-28 21:33N 38°31' E 015°18'10 9.7
2015-Aug-28 20:33N 38°32' E 015°06'7 0.4
2015-Aug-28 04:28N 38°32' E 014°57'3 3.8
2015-Aug-28 03:33N 38°32' E 015°01'0 0.0
2015-Aug-28 02:16N 38°32' E 015°01'0 0.1
2015-Aug-28 01:32N 38°32' E 015°01'7 6.7
2015-Aug-28 00:33N 38°29' E 015°09'8 8.3
2015-Aug-27 23:34N 38°26' E 015°19'8 8.1
2015-Aug-27 22:33N 38°23' E 015°28'7 7.4
2015-Aug-27 21:33N 38°19' E 015°37'5 5.0
2015-Aug-27 20:34N 38°15' E 015°40'7 7.4
2015-Aug-27 19:33N 38°08' E 015°37'9 9.3
2015-Aug-27 18:33N 37°59' E 015°33'9 8.6
2015-Aug-27 17:34N 37°51' E 015°30'  
2015-Aug-25 09:21N 37°30' E 015°22'7 8.8
2015-Aug-25 08:32N 37°37' E 015°24'9 9.5
2015-Aug-25 07:33N 37°46' E 015°26'10 9.7
2015-Aug-25 06:33N 37°55' E 015°30'10 9.5
2015-Aug-25 05:33N 38°04' E 015°33'10 9.5
2015-Aug-25 04:33N 38°14' E 015°36'7 7.0
2015-Aug-25 03:34N 38°21' E 015°36'10 9.6
2015-Aug-25 02:33N 38°26' E 015°26'10 9.5
2015-Aug-25 01:31N 38°32' E 015°16'9 9.4
2015-Aug-25 00:33N 38°37' E 015°07'2 0.1
2015-Aug-24 11:30N 38°38' E 015°05'8 8.5
2015-Aug-24 10:32N 38°35' E 015°15'9 9.3
2015-Aug-24 09:32N 38°32' E 015°26'9 9.2
2015-Aug-24 08:34N 38°30' E 015°37'9 9.0
2015-Aug-24 07:33N 38°28' E 015°48'5 0.7
2015-Aug-24 00:28N 38°27' E 015°54'3 3.4
2015-Aug-23 23:33N 38°28' E 015°51'0 0.4
2015-Aug-23 22:33N 38°28' E 015°52'3 3.3
2015-Aug-23 21:33N 38°28' E 015°48'10 9.4
2015-Aug-23 20:33N 38°29' E 015°35'9 9.3
2015-Aug-23 19:33N 38°30' E 015°24'9 9.2
2015-Aug-23 18:33N 38°31' E 015°12'10 9.2
2015-Aug-23 17:30N 38°33' E 014°60'  
Track history (hours):
 
Tides and Currents Weather Stations Pressure Air Temp Water Temp Dewpoint Dewpoint Depression Visibility Wind Speed Wind Dir Waves Ship Positions

Antonello

Last reported at 2015-Aug-30 15:33 UTC. Time now 2015-Aug-30 15:58 UTC.
Position N 38°27' E 015°48'.

Length 70 m; draft 4.2 m.

Type: Ship. MMSI: 247422000.

Date/timePositionNaut miles runAvg speedWind from/ knotsBaromVisibWave heightAir tempDewpointWater temp
2015-Aug-30 15:33N 38°27' E 015°48'5 0.7
2015-Aug-30 08:33N 38°27' E 015°54'8 8.5
2015-Aug-30 07:34N 38°28' E 015°44'10 9.8
2015-Aug-30 06:34N 38°29' E 015°31'10 9.8
2015-Aug-30 05:33N 38°31' E 015°19'10 9.9
2015-Aug-30 04:34N 38°32' E 015°06'11 0.8
2015-Aug-29 15:31N 38°34' E 014°53'7 6.8
2015-Aug-29 14:33N 38°32' E 015°01'9 8.8
2015-Aug-29 13:33N 38°31' E 015°12'9 8.7
2015-Aug-29 12:33N 38°30' E 015°23'9 8.7
2015-Aug-29 11:33N 38°29' E 015°34'9 8.8
2015-Aug-29 10:33N 38°28' E 015°45'7 7.4
2015-Aug-29 09:33N 38°27' E 015°54'0 0.0
2015-Aug-29 03:33N 38°27' E 015°54'5 4.7
2015-Aug-29 02:33N 38°29' E 015°49'1 0.7
2015-Aug-29 01:33N 38°29' E 015°50'1 0.9
2015-Aug-29 00:33N 38°28' E 015°50'7 6.7
2015-Aug-28 23:32N 38°27' E 015°41'9 9.0
2015-Aug-28 22:33N 38°29' E 015°30'9 9.4
2015-Aug-28 21:33N 38°31' E 015°18'10 9.7
2015-Aug-28 20:33N 38°32' E 015°06'7 0.4
2015-Aug-28 04:28N 38°32' E 014°57'3 3.8
2015-Aug-28 03:33N 38°32' E 015°01'0 0.0
2015-Aug-28 02:16N 38°32' E 015°01'0 0.1
2015-Aug-28 01:32N 38°32' E 015°01'7 6.7
2015-Aug-28 00:33N 38°29' E 015°09'8 8.3
2015-Aug-27 23:34N 38°26' E 015°19'8 8.1
2015-Aug-27 22:33N 38°23' E 015°28'7 7.4
2015-Aug-27 21:33N 38°19' E 015°37'5 5.0
2015-Aug-27 20:34N 38°15' E 015°40'7 7.4
2015-Aug-27 19:33N 38°08' E 015°37'9 9.3
2015-Aug-27 18:33N 37°59' E 015°33'9 8.6
2015-Aug-27 17:34N 37°51' E 015°30'  
2015-Aug-25 09:21N 37°30' E 015°22'7 8.8
2015-Aug-25 08:32N 37°37' E 015°24'9 9.5
2015-Aug-25 07:33N 37°46' E 015°26'10 9.7
2015-Aug-25 06:33N 37°55' E 015°30'10 9.5
2015-Aug-25 05:33N 38°04' E 015°33'10 9.5
2015-Aug-25 04:33N 38°14' E 015°36'7 7.0
2015-Aug-25 03:34N 38°21' E 015°36'10 9.6
2015-Aug-25 02:33N 38°26' E 015°26'10 9.5
2015-Aug-25 01:31N 38°32' E 015°16'9 9.4
2015-Aug-25 00:33N 38°37' E 015°07'2 0.1
2015-Aug-24 11:30N 38°38' E 015°05'8 8.5
2015-Aug-24 10:32N 38°35' E 015°15'9 9.3
2015-Aug-24 09:32N 38°32' E 015°26'9 9.2
2015-Aug-24 08:34N 38°30' E 015°37'9 9.0
2015-Aug-24 07:33N 38°28' E 015°48'5 0.7
2015-Aug-24 00:28N 38°27' E 015°54'3 3.4
2015-Aug-23 23:33N 38°28' E 015°51'0 0.4
2015-Aug-23 22:33N 38°28' E 015°52'3 3.3
2015-Aug-23 21:33N 38°28' E 015°48'10 9.4
2015-Aug-23 20:33N 38°29' E 015°35'9 9.3
2015-Aug-23 19:33N 38°30' E 015°24'9 9.2
2015-Aug-23 18:33N 38°31' E 015°12'10 9.2
2015-Aug-23 17:30N 38°33' E 014°60'  

Dump ship's entire track history